sensor_id;sensor_type;location;lat;lon;timestamp;temperature;humidity
44855;DHT22;30591;48.228;16.398;2023-04-28T00:00:50;4.80;99.90
44855;DHT22;30591;48.228;16.398;2023-04-28T00:03:18;4.90;99.90
44855;DHT22;30591;48.228;16.398;2023-04-28T00:05:46;4.80;99.90
44855;DHT22;30591;48.228;16.398;2023-04-28T00:08:15;4.80;99.90
44855;DHT22;30591;48.228;16.398;2023-04-28T00:10:43;4.90;99.90
44855;DHT22;30591;48.228;16.398;2023-04-28T00:13:10;4.90;99.90
44855;DHT22;30591;48.228;16.398;2023-04-28T00:15:37;4.90;99.90
44855;DHT22;30591;48.228;16.398;2023-04-28T00:18:04;4.90;99.90
44855;DHT22;30591;48.228;16.398;2023-04-28T00:20:32;4.90;99.90
44855;DHT22;30591;48.228;16.398;2023-04-28T00:22:59;4.40;99.90
44855;DHT22;30591;48.228;16.398;2023-04-28T00:25:26;4.80;99.90
44855;DHT22;30591;48.228;16.398;2023-04-28T00:27:54;4.70;99.90
44855;DHT22;30591;48.228;16.398;2023-04-28T00:30:21;4.70;99.90
44855;DHT22;30591;48.228;16.398;2023-04-28T00:32:49;4.70;99.90
44855;DHT22;30591;48.228;16.398;2023-04-28T00:35:16;4.60;99.90
44855;DHT22;30591;48.228;16.398;2023-04-28T00:37:44;4.60;99.90
44855;DHT22;30591;48.228;16.398;2023-04-28T00:40:11;4.70;99.90
44855;DHT22;30591;48.228;16.398;2023-04-28T00:42:39;4.60;99.90
44855;DHT22;30591;48.228;16.398;2023-04-28T00:45:07;4.60;99.90
44855;DHT22;30591;48.228;16.398;2023-04-28T00:47:36;4.70;99.90
44855;DHT22;30591;48.228;16.398;2023-04-28T00:50:04;4.60;99.90
44855;DHT22;30591;48.228;16.398;2023-04-28T00:52:32;4.50;99.90
44855;DHT22;30591;48.228;16.398;2023-04-28T00:55:00;4.30;99.90
44855;DHT22;30591;48.228;16.398;2023-04-28T00:57:27;4.40;99.90
44855;DHT22;30591;48.228;16.398;2023-04-28T00:59:55;4.40;99.90
44855;DHT22;30591;48.228;16.398;2023-04-28T01:02:23;4.40;99.90
44855;DHT22;30591;48.228;16.398;2023-04-28T01:04:53;4.30;99.90
44855;DHT22;30591;48.228;16.398;2023-04-28T01:07:21;4.30;99.90
44855;DHT22;30591;48.228;16.398;2023-04-28T01:09:48;4.30;99.90
44855;DHT22;30591;48.228;16.398;2023-04-28T01:12:21;4.30;99.90
44855;DHT22;30591;48.228;16.398;2023-04-28T01:14:51;4.40;99.90
44855;DHT22;30591;48.228;16.398;2023-04-28T01:17:19;4.50;99.90
44855;DHT22;30591;48.228;16.398;2023-04-28T01:19:47;4.50;99.90
44855;DHT22;30591;48.228;16.398;2023-04-28T01:22:15;4.40;99.90
44855;DHT22;30591;48.228;16.398;2023-04-28T01:24:43;4.40;99.90
44855;DHT22;30591;48.228;16.398;2023-04-28T01:27:12;4.40;99.90
44855;DHT22;30591;48.228;16.398;2023-04-28T01:29:41;4.30;99.90
44855;DHT22;30591;48.228;16.398;2023-04-28T01:32:08;4.30;99.90
44855;DHT22;30591;48.228;16.398;2023-04-28T01:34:35;4.20;99.90
44855;DHT22;30591;48.228;16.398;2023-04-28T01:37:05;4.10;99.90
44855;DHT22;30591;48.228;16.398;2023-04-28T01:39:32;4.10;99.90
44855;DHT22;30591;48.228;16.398;2023-04-28T01:42:02;4.10;99.90
44855;DHT22;30591;48.228;16.398;2023-04-28T01:44:30;4.10;99.90
44855;DHT22;30591;48.228;16.398;2023-04-28T01:46:57;4.20;99.90
44855;DHT22;30591;48.228;16.398;2023-04-28T01:49:24;4.30;99.90
44855;DHT22;30591;48.228;16.398;2023-04-28T01:51:52;4.30;99.90
44855;DHT22;30591;48.228;16.398;2023-04-28T01:54:19;4.40;99.90
44855;DHT22;30591;48.228;16.398;2023-04-28T01:56:46;4.40;99.90
44855;DHT22;30591;48.228;16.398;2023-04-28T01:59:15;4.40;99.90
44855;DHT22;30591;48.228;16.398;2023-04-28T02:01:43;4.40;99.90
44855;DHT22;30591;48.228;16.398;2023-04-28T02:04:11;4.40;99.90
44855;DHT22;30591;48.228;16.398;2023-04-28T02:06:38;4.40;99.90
44855;DHT22;30591;48.228;16.398;2023-04-28T02:09:05;4.40;99.90
44855;DHT22;30591;48.228;16.398;2023-04-28T02:11:33;4.40;99.90
44855;DHT22;30591;48.228;16.398;2023-04-28T02:14:00;4.40;99.90
44855;DHT22;30591;48.228;16.398;2023-04-28T02:16:27;4.30;99.90
44855;DHT22;30591;48.228;16.398;2023-04-28T02:18:55;4.40;99.90
44855;DHT22;30591;48.228;16.398;2023-04-28T02:21:22;4.40;99.90
44855;DHT22;30591;48.228;16.398;2023-04-28T02:23:49;4.40;99.90
44855;DHT22;30591;48.228;16.398;2023-04-28T02:26:16;4.50;99.90
44855;DHT22;30591;48.228;16.398;2023-04-28T02:28:44;4.60;99.90
44855;DHT22;30591;48.228;16.398;2023-04-28T02:31:11;4.70;99.90
44855;DHT22;30591;48.228;16.398;2023-04-28T02:33:40;4.80;99.90
44855;DHT22;30591;48.228;16.398;2023-04-28T02:36:09;4.90;99.90
44855;DHT22;30591;48.228;16.398;2023-04-28T02:38:38;4.90;99.90
44855;DHT22;30591;48.228;16.398;2023-04-28T02:41:07;5.00;99.90
44855;DHT22;30591;48.228;16.398;2023-04-28T02:43:36;5.10;99.90
44855;DHT22;30591;48.228;16.398;2023-04-28T02:46:04;5.20;99.90
44855;DHT22;30591;48.228;16.398;2023-04-28T02:48:32;5.30;99.90
44855;DHT22;30591;48.228;16.398;2023-04-28T02:51:02;5.30;99.90
44855;DHT22;30591;48.228;16.398;2023-04-28T02:53:30;5.40;99.90
44855;DHT22;30591;48.228;16.398;2023-04-28T02:55:58;5.40;99.90
44855;DHT22;30591;48.228;16.398;2023-04-28T02:58:28;5.50;99.90
44855;DHT22;30591;48.228;16.398;2023-04-28T03:00:55;5.50;99.90
44855;DHT22;30591;48.228;16.398;2023-04-28T03:03:22;5.60;99.90
44855;DHT22;30591;48.228;16.398;2023-04-28T03:05:49;5.60;99.90
44855;DHT22;30591;48.228;16.398;2023-04-28T03:08:18;5.60;99.90
44855;DHT22;30591;48.228;16.398;2023-04-28T03:10:47;5.60;99.90
44855;DHT22;30591;48.228;16.398;2023-04-28T03:13:14;5.70;99.90
44855;DHT22;30591;48.228;16.398;2023-04-28T03:15:42;5.60;99.90
44855;DHT22;30591;48.228;16.398;2023-04-28T03:18:11;5.70;99.90
44855;DHT22;30591;48.228;16.398;2023-04-28T03:20:38;5.70;99.90
44855;DHT22;30591;48.228;16.398;2023-04-28T03:23:05;5.60;99.90
44855;DHT22;30591;48.228;16.398;2023-04-28T03:25:34;5.60;99.90
44855;DHT22;30591;48.228;16.398;2023-04-28T03:28:02;5.60;99.90
44855;DHT22;30591;48.228;16.398;2023-04-28T03:30:29;5.50;99.90
44855;DHT22;30591;48.228;16.398;2023-04-28T03:32:57;5.60;99.90
44855;DHT22;30591;48.228;16.398;2023-04-28T03:35:24;5.70;99.90
44855;DHT22;30591;48.228;16.398;2023-04-28T03:37:53;5.70;99.90
44855;DHT22;30591;48.228;16.398;2023-04-28T03:40:21;5.60;99.90
44855;DHT22;30591;48.228;16.398;2023-04-28T03:43:17;5.60;99.90
44855;DHT22;30591;48.228;16.398;2023-04-28T03:46:02;5.60;99.90
44855;DHT22;30591;48.228;16.398;2023-04-28T03:48:30;5.60;99.90
44855;DHT22;30591;48.228;16.398;2023-04-28T03:50:58;5.50;99.90
44855;DHT22;30591;48.228;16.398;2023-04-28T03:53:25;5.50;99.90
44855;DHT22;30591;48.228;16.398;2023-04-28T03:55:52;5.50;99.90
44855;DHT22;30591;48.228;16.398;2023-04-28T03:58:20;5.50;99.90
44855;DHT22;30591;48.228;16.398;2023-04-28T04:00:47;5.50;99.90
44855;DHT22;30591;48.228;16.398;2023-04-28T04:03:15;5.60;99.90
44855;DHT22;30591;48.228;16.398;2023-04-28T04:05:43;5.60;99.90
44855;DHT22;30591;48.228;16.398;2023-04-28T04:08:11;5.70;99.90
44855;DHT22;30591;48.228;16.398;2023-04-28T04:10:39;5.80;99.90
44855;DHT22;30591;48.228;16.398;2023-04-28T04:13:07;5.80;99.90
44855;DHT22;30591;48.228;16.398;2023-04-28T04:15:35;5.80;99.90
44855;DHT22;30591;48.228;16.398;2023-04-28T04:18:03;5.80;99.90
44855;DHT22;30591;48.228;16.398;2023-04-28T04:20:47;5.90;99.90
44855;DHT22;30591;48.228;16.398;2023-04-28T04:23:16;6.00;99.90
44855;DHT22;30591;48.228;16.398;2023-04-28T04:25:43;6.10;99.90
44855;DHT22;30591;48.228;16.398;2023-04-28T04:28:10;6.10;99.90
44855;DHT22;30591;48.228;16.398;2023-04-28T04:30:37;6.10;99.90
44855;DHT22;30591;48.228;16.398;2023-04-28T04:33:04;6.20;99.90
44855;DHT22;30591;48.228;16.398;2023-04-28T04:35:32;6.20;99.90
44855;DHT22;30591;48.228;16.398;2023-04-28T04:38:01;6.20;99.90
44855;DHT22;30591;48.228;16.398;2023-04-28T04:40:29;6.30;99.90
44855;DHT22;30591;48.228;16.398;2023-04-28T04:42:57;6.40;99.90
44855;DHT22;30591;48.228;16.398;2023-04-28T04:45:26;6.40;99.90
44855;DHT22;30591;48.228;16.398;2023-04-28T04:47:55;6.50;99.90
44855;DHT22;30591;48.228;16.398;2023-04-28T04:50:23;6.50;99.90
44855;DHT22;30591;48.228;16.398;2023-04-28T04:52:50;6.50;99.90
44855;DHT22;30591;48.228;16.398;2023-04-28T04:55:18;6.60;99.90
44855;DHT22;30591;48.228;16.398;2023-04-28T04:57:45;6.70;99.90
44855;DHT22;30591;48.228;16.398;2023-04-28T05:00:40;6.80;99.90
44855;DHT22;30591;48.228;16.398;2023-04-28T05:03:09;6.90;99.90
44855;DHT22;30591;48.228;16.398;2023-04-28T05:05:39;7.00;99.90
44855;DHT22;30591;48.228;16.398;2023-04-28T05:08:19;7.10;99.90
44855;DHT22;30591;48.228;16.398;2023-04-28T05:10:47;7.20;99.90
44855;DHT22;30591;48.228;16.398;2023-04-28T05:13:14;7.30;99.90
44855;DHT22;30591;48.228;16.398;2023-04-28T05:15:42;7.40;99.90
44855;DHT22;30591;48.228;16.398;2023-04-28T05:18:23;7.50;99.90
44855;DHT22;30591;48.228;16.398;2023-04-28T05:20:50;7.60;99.90
44855;DHT22;30591;48.228;16.398;2023-04-28T05:23:18;7.60;99.90
44855;DHT22;30591;48.228;16.398;2023-04-28T05:25:46;7.70;99.90
44855;DHT22;30591;48.228;16.398;2023-04-28T05:28:13;7.80;99.90
44855;DHT22;30591;48.228;16.398;2023-04-28T05:30:42;7.80;99.90
44855;DHT22;30591;48.228;16.398;2023-04-28T05:33:12;7.90;99.90
44855;DHT22;30591;48.228;16.398;2023-04-28T05:35:41;8.00;99.90
44855;DHT22;30591;48.228;16.398;2023-04-28T05:38:08;8.10;99.90
44855;DHT22;30591;48.228;16.398;2023-04-28T05:40:36;8.30;99.90
44855;DHT22;30591;48.228;16.398;2023-04-28T05:43:03;8.60;99.90
44855;DHT22;30591;48.228;16.398;2023-04-28T05:45:30;8.60;99.90
44855;DHT22;30591;48.228;16.398;2023-04-28T05:47:58;8.70;99.90
44855;DHT22;30591;48.228;16.398;2023-04-28T05:50:26;8.80;99.90
44855;DHT22;30591;48.228;16.398;2023-04-28T05:52:53;9.00;99.90
44855;DHT22;30591;48.228;16.398;2023-04-28T05:55:21;9.00;99.90
44855;DHT22;30591;48.228;16.398;2023-04-28T05:57:49;9.10;99.90
44855;DHT22;30591;48.228;16.398;2023-04-28T06:00:20;9.20;99.90
44855;DHT22;30591;48.228;16.398;2023-04-28T06:02:51;9.40;99.90
44855;DHT22;30591;48.228;16.398;2023-04-28T06:05:20;9.60;99.90
44855;DHT22;30591;48.228;16.398;2023-04-28T06:07:50;9.70;99.90
44855;DHT22;30591;48.228;16.398;2023-04-28T06:10:21;9.80;99.90
44855;DHT22;30591;48.228;16.398;2023-04-28T06:12:49;10.00;99.90
44855;DHT22;30591;48.228;16.398;2023-04-28T06:15:16;10.30;99.90
44855;DHT22;30591;48.228;16.398;2023-04-28T06:17:44;10.30;99.90
44855;DHT22;30591;48.228;16.398;2023-04-28T06:20:11;10.40;99.90
44855;DHT22;30591;48.228;16.398;2023-04-28T06:22:40;10.40;99.90
44855;DHT22;30591;48.228;16.398;2023-04-28T06:25:08;10.40;99.90
44855;DHT22;30591;48.228;16.398;2023-04-28T06:27:43;10.60;99.90
44855;DHT22;30591;48.228;16.398;2023-04-28T06:30:16;10.60;99.90
44855;DHT22;30591;48.228;16.398;2023-04-28T06:32:45;10.60;99.90
44855;DHT22;30591;48.228;16.398;2023-04-28T06:35:14;10.70;99.90
44855;DHT22;30591;48.228;16.398;2023-04-28T06:37:42;11.00;99.90
44855;DHT22;30591;48.228;16.398;2023-04-28T06:40:10;11.10;99.90
44855;DHT22;30591;48.228;16.398;2023-04-28T06:42:41;11.20;99.90
44855;DHT22;30591;48.228;16.398;2023-04-28T06:45:11;11.10;99.90
44855;DHT22;30591;48.228;16.398;2023-04-28T06:47:38;11.10;99.90
44855;DHT22;30591;48.228;16.398;2023-04-28T06:50:09;11.20;99.90
44855;DHT22;30591;48.228;16.398;2023-04-28T06:52:37;11.30;99.40
44855;DHT22;30591;48.228;16.398;2023-04-28T06:55:07;11.60;99.90
44855;DHT22;30591;48.228;16.398;2023-04-28T06:57:35;11.40;98.50
44855;DHT22;30591;48.228;16.398;2023-04-28T07:00:04;11.40;99.20
44855;DHT22;30591;48.228;16.398;2023-04-28T07:02:32;11.50;99.90
44855;DHT22;30591;48.228;16.398;2023-04-28T07:05:00;11.40;98.90
44855;DHT22;30591;48.228;16.398;2023-04-28T07:07:28;11.40;99.80
44855;DHT22;30591;48.228;16.398;2023-04-28T07:09:55;11.50;99.10
44855;DHT22;30591;48.228;16.398;2023-04-28T07:12:22;11.50;98.30
44855;DHT22;30591;48.228;16.398;2023-04-28T07:14:50;11.50;98.80
44855;DHT22;30591;48.228;16.398;2023-04-28T07:17:17;11.60;98.10
44855;DHT22;30591;48.228;16.398;2023-04-28T07:19:45;11.80;97.70
44855;DHT22;30591;48.228;16.398;2023-04-28T07:22:12;11.90;98.10
44855;DHT22;30591;48.228;16.398;2023-04-28T07:24:39;12.00;97.70
44855;DHT22;30591;48.228;16.398;2023-04-28T07:27:06;12.10;98.00
44855;DHT22;30591;48.228;16.398;2023-04-28T07:29:34;11.80;97.70
44855;DHT22;30591;48.228;16.398;2023-04-28T07:32:01;11.90;98.00
44855;DHT22;30591;48.228;16.398;2023-04-28T07:34:34;12.10;97.50
44855;DHT22;30591;48.228;16.398;2023-04-28T07:37:02;11.90;98.10
44855;DHT22;30591;48.228;16.398;2023-04-28T07:39:31;12.20;98.20
44855;DHT22;30591;48.228;16.398;2023-04-28T07:42:00;12.30;97.30
44855;DHT22;30591;48.228;16.398;2023-04-28T07:44:29;12.40;97.80
44855;DHT22;30591;48.228;16.398;2023-04-28T07:46:57;12.60;97.70
44855;DHT22;30591;48.228;16.398;2023-04-28T07:49:28;12.70;98.10
44855;DHT22;30591;48.228;16.398;2023-04-28T07:51:56;12.90;97.50
44855;DHT22;30591;48.228;16.398;2023-04-28T07:54:23;12.90;97.20
44855;DHT22;30591;48.228;16.398;2023-04-28T07:56:51;12.90;97.20
44855;DHT22;30591;48.228;16.398;2023-04-28T07:59:18;12.90;96.30
44855;DHT22;30591;48.228;16.398;2023-04-28T08:01:45;13.20;96.70
44855;DHT22;30591;48.228;16.398;2023-04-28T08:04:13;13.30;96.10
44855;DHT22;30591;48.228;16.398;2023-04-28T08:06:42;13.50;97.10
44855;DHT22;30591;48.228;16.398;2023-04-28T08:09:10;13.50;97.00
44855;DHT22;30591;48.228;16.398;2023-04-28T08:11:38;13.40;96.30
44855;DHT22;30591;48.228;16.398;2023-04-28T08:14:05;13.20;97.80
44855;DHT22;30591;48.228;16.398;2023-04-28T08:16:32;13.00;96.00
44855;DHT22;30591;48.228;16.398;2023-04-28T08:19:02;13.20;96.80
44855;DHT22;30591;48.228;16.398;2023-04-28T08:21:29;13.40;96.70
44855;DHT22;30591;48.228;16.398;2023-04-28T08:23:59;13.30;96.40
44855;DHT22;30591;48.228;16.398;2023-04-28T08:26:26;13.70;97.80
44855;DHT22;30591;48.228;16.398;2023-04-28T08:28:53;13.60;96.60
44855;DHT22;30591;48.228;16.398;2023-04-28T08:31:20;13.70;96.30
44855;DHT22;30591;48.228;16.398;2023-04-28T08:33:48;13.80;97.30
44855;DHT22;30591;48.228;16.398;2023-04-28T08:36:17;13.60;96.80
44855;DHT22;30591;48.228;16.398;2023-04-28T08:38:45;13.60;96.50
44855;DHT22;30591;48.228;16.398;2023-04-28T08:41:14;13.70;96.30
44855;DHT22;30591;48.228;16.398;2023-04-28T08:43:42;14.10;98.30
44855;DHT22;30591;48.228;16.398;2023-04-28T08:46:09;14.00;97.70
44855;DHT22;30591;48.228;16.398;2023-04-28T08:48:42;14.40;97.90
44855;DHT22;30591;48.228;16.398;2023-04-28T08:51:18;14.10;98.20
44855;DHT22;30591;48.228;16.398;2023-04-28T08:53:53;14.20;97.80
44855;DHT22;30591;48.228;16.398;2023-04-28T08:56:26;14.50;96.50
44855;DHT22;30591;48.228;16.398;2023-04-28T08:58:54;15.00;97.40
44855;DHT22;30591;48.228;16.398;2023-04-28T09:01:21;15.00;95.80
44855;DHT22;30591;48.228;16.398;2023-04-28T09:03:50;15.00;97.80
44855;DHT22;30591;48.228;16.398;2023-04-28T09:06:20;15.10;97.20
44855;DHT22;30591;48.228;16.398;2023-04-28T09:08:48;15.20;95.50
44855;DHT22;30591;48.228;16.398;2023-04-28T09:11:16;15.60;98.00
44855;DHT22;30591;48.228;16.398;2023-04-28T09:13:43;15.40;97.30
44855;DHT22;30591;48.228;16.398;2023-04-28T09:16:10;15.30;96.10
44855;DHT22;30591;48.228;16.398;2023-04-28T09:18:38;15.40;97.20
44855;DHT22;30591;48.228;16.398;2023-04-28T09:21:09;15.30;96.40
44855;DHT22;30591;48.228;16.398;2023-04-28T09:23:49;15.30;95.40
44855;DHT22;30591;48.228;16.398;2023-04-28T09:26:16;15.20;95.50
44855;DHT22;30591;48.228;16.398;2023-04-28T09:28:45;15.50;97.80
44855;DHT22;30591;48.228;16.398;2023-04-28T09:31:25;16.00;96.30
44855;DHT22;30591;48.228;16.398;2023-04-28T09:33:58;16.00;97.40
44855;DHT22;30591;48.228;16.398;2023-04-28T09:36:28;16.10;96.00
44855;DHT22;30591;48.228;16.398;2023-04-28T09:38:59;16.30;97.00
44855;DHT22;30591;48.228;16.398;2023-04-28T09:41:41;16.20;96.20
44855;DHT22;30591;48.228;16.398;2023-04-28T09:44:18;16.10;95.00
44855;DHT22;30591;48.228;16.398;2023-04-28T09:46:47;16.80;96.60
44855;DHT22;30591;48.228;16.398;2023-04-28T09:49:14;17.10;96.40
44855;DHT22;30591;48.228;16.398;2023-04-28T09:51:41;16.70;95.10
44855;DHT22;30591;48.228;16.398;2023-04-28T09:54:09;16.90;95.10
44855;DHT22;30591;48.228;16.398;2023-04-28T09:56:39;16.90;94.80
44855;DHT22;30591;48.228;16.398;2023-04-28T09:59:07;16.60;94.20
44855;DHT22;30591;48.228;16.398;2023-04-28T10:01:39;16.60;94.10
44855;DHT22;30591;48.228;16.398;2023-04-28T10:04:07;16.70;94.00
44855;DHT22;30591;48.228;16.398;2023-04-28T10:06:38;16.50;93.30
44855;DHT22;30591;48.228;16.398;2023-04-28T10:09:06;16.50;93.60
44855;DHT22;30591;48.228;16.398;2023-04-28T10:11:36;16.80;94.00
44855;DHT22;30591;48.228;16.398;2023-04-28T10:14:04;16.70;92.90
44855;DHT22;30591;48.228;16.398;2023-04-28T10:16:31;16.60;93.70
44855;DHT22;30591;48.228;16.398;2023-04-28T10:19:01;16.70;93.20
44855;DHT22;30591;48.228;16.398;2023-04-28T10:21:33;16.70;93.40
44855;DHT22;30591;48.228;16.398;2023-04-28T10:24:14;16.90;93.60
44855;DHT22;30591;48.228;16.398;2023-04-28T10:27:03;17.20;92.40
44855;DHT22;30591;48.228;16.398;2023-04-28T10:29:33;17.50;93.20
44855;DHT22;30591;48.228;16.398;2023-04-28T10:32:39;17.40;92.70
44855;DHT22;30591;48.228;16.398;2023-04-28T10:38:08;17.80;92.20
44855;DHT22;30591;48.228;16.398;2023-04-28T10:43:33;17.60;91.00
44855;DHT22;30591;48.228;16.398;2023-04-28T10:46:03;17.60;93.20
44855;DHT22;30591;48.228;16.398;2023-04-28T10:56:24;18.00;91.90
44855;DHT22;30591;48.228;16.398;2023-04-28T10:58:54;18.40;92.70
44855;DHT22;30591;48.228;16.398;2023-04-28T11:03:58;17.60;91.30
44855;DHT22;30591;48.228;16.398;2023-04-28T11:06:46;17.60;92.40
44855;DHT22;30591;48.228;16.398;2023-04-28T11:17:04;17.70;90.80
44855;DHT22;30591;48.228;16.398;2023-04-28T11:22:01;18.50;93.20
44855;DHT22;30591;48.228;16.398;2023-04-28T11:24:30;18.10;91.20
44855;DHT22;30591;48.228;16.398;2023-04-28T11:26:58;18.40;91.90
44855;DHT22;30591;48.228;16.398;2023-04-28T11:29:44;18.50;91.20
44855;DHT22;30591;48.228;16.398;2023-04-28T11:32:15;18.20;91.00
44855;DHT22;30591;48.228;16.398;2023-04-28T11:34:50;18.30;91.80
44855;DHT22;30591;48.228;16.398;2023-04-28T11:37:18;18.90;90.90
44855;DHT22;30591;48.228;16.398;2023-04-28T11:39:47;18.70;90.60
44855;DHT22;30591;48.228;16.398;2023-04-28T11:42:14;19.20;89.70
44855;DHT22;30591;48.228;16.398;2023-04-28T11:44:50;19.50;90.70
44855;DHT22;30591;48.228;16.398;2023-04-28T11:47:32;19.70;88.00
44855;DHT22;30591;48.228;16.398;2023-04-28T11:50:00;19.80;91.00
44855;DHT22;30591;48.228;16.398;2023-04-28T11:52:29;19.90;89.00
44855;DHT22;30591;48.228;16.398;2023-04-28T11:54:58;19.70;88.70
44855;DHT22;30591;48.228;16.398;2023-04-28T11:57:28;20.30;87.40
44855;DHT22;30591;48.228;16.398;2023-04-28T12:00:15;19.80;90.40
44855;DHT22;30591;48.228;16.398;2023-04-28T12:02:48;18.90;91.40
44855;DHT22;30591;48.228;16.398;2023-04-28T12:05:17;18.80;91.50
44855;DHT22;30591;48.228;16.398;2023-04-28T12:07:46;18.90;89.30
44855;DHT22;30591;48.228;16.398;2023-04-28T12:10:15;18.90;90.80
44855;DHT22;30591;48.228;16.398;2023-04-28T12:12:43;18.70;88.70
44855;DHT22;30591;48.228;16.398;2023-04-28T12:15:19;18.70;91.10
44855;DHT22;30591;48.228;16.398;2023-04-28T12:17:48;18.90;90.40
44855;DHT22;30591;48.228;16.398;2023-04-28T12:20:37;18.90;91.40
44855;DHT22;30591;48.228;16.398;2023-04-28T12:23:06;19.00;91.50
44855;DHT22;30591;48.228;16.398;2023-04-28T12:25:43;18.80;88.50
44855;DHT22;30591;48.228;16.398;2023-04-28T12:28:11;18.30;90.40
44855;DHT22;30591;48.228;16.398;2023-04-28T12:30:38;18.20;90.70
44855;DHT22;30591;48.228;16.398;2023-04-28T12:33:25;17.90;88.00
44855;DHT22;30591;48.228;16.398;2023-04-28T12:35:55;18.10;91.60
44855;DHT22;30591;48.228;16.398;2023-04-28T12:38:24;18.00;91.90
44855;DHT22;30591;48.228;16.398;2023-04-28T12:40:52;17.70;91.50
44855;DHT22;30591;48.228;16.398;2023-04-28T12:43:19;17.70;91.60
44855;DHT22;30591;48.228;16.398;2023-04-28T12:45:50;17.30;91.50
44855;DHT22;30591;48.228;16.398;2023-04-28T12:48:20;17.30;92.50
44855;DHT22;30591;48.228;16.398;2023-04-28T12:50:48;17.30;91.70
44855;DHT22;30591;48.228;16.398;2023-04-28T12:53:15;17.20;92.60
44855;DHT22;30591;48.228;16.398;2023-04-28T12:55:43;17.20;92.10
44855;DHT22;30591;48.228;16.398;2023-04-28T12:58:10;17.10;92.90
44855;DHT22;30591;48.228;16.398;2023-04-28T13:00:37;17.10;92.40
44855;DHT22;30591;48.228;16.398;2023-04-28T13:03:05;17.20;92.00
44855;DHT22;30591;48.228;16.398;2023-04-28T13:05:33;17.10;92.60
44855;DHT22;30591;48.228;16.398;2023-04-28T13:08:01;17.10;92.80
44855;DHT22;30591;48.228;16.398;2023-04-28T13:10:28;17.10;92.00
44855;DHT22;30591;48.228;16.398;2023-04-28T13:12:56;17.20;91.70
44855;DHT22;30591;48.228;16.398;2023-04-28T13:15:23;17.10;91.90
44855;DHT22;30591;48.228;16.398;2023-04-28T13:17:50;17.10;92.40
44855;DHT22;30591;48.228;16.398;2023-04-28T13:20:18;17.10;92.70
44855;DHT22;30591;48.228;16.398;2023-04-28T13:22:45;17.00;93.20
44855;DHT22;30591;48.228;16.398;2023-04-28T13:25:13;16.90;92.60
44855;DHT22;30591;48.228;16.398;2023-04-28T13:27:41;16.80;91.40
44855;DHT22;30591;48.228;16.398;2023-04-28T13:30:10;16.70;91.60
44855;DHT22;30591;48.228;16.398;2023-04-28T13:32:37;16.60;92.60
44855;DHT22;30591;48.228;16.398;2023-04-28T13:35:06;16.60;92.40
44855;DHT22;30591;48.228;16.398;2023-04-28T13:37:35;16.70;92.70
44855;DHT22;30591;48.228;16.398;2023-04-28T13:40:09;16.70;93.50
44855;DHT22;30591;48.228;16.398;2023-04-28T13:42:37;16.60;93.00
44855;DHT22;30591;48.228;16.398;2023-04-28T13:45:05;16.60;92.60
44855;DHT22;30591;48.228;16.398;2023-04-28T13:47:33;16.50;93.20
44855;DHT22;30591;48.228;16.398;2023-04-28T13:50:00;16.60;92.30
44855;DHT22;30591;48.228;16.398;2023-04-28T13:52:28;16.50;91.80
44855;DHT22;30591;48.228;16.398;2023-04-28T13:54:55;16.40;92.70
44855;DHT22;30591;48.228;16.398;2023-04-28T13:57:22;16.20;92.90
44855;DHT22;30591;48.228;16.398;2023-04-28T13:59:50;16.30;93.30
44855;DHT22;30591;48.228;16.398;2023-04-28T14:02:17;16.30;93.70
44855;DHT22;30591;48.228;16.398;2023-04-28T14:04:45;16.40;93.00
44855;DHT22;30591;48.228;16.398;2023-04-28T14:07:16;16.40;92.50
44855;DHT22;30591;48.228;16.398;2023-04-28T14:09:43;16.40;92.60
44855;DHT22;30591;48.228;16.398;2023-04-28T14:12:11;16.40;93.30
44855;DHT22;30591;48.228;16.398;2023-04-28T14:14:40;16.40;93.40
44855;DHT22;30591;48.228;16.398;2023-04-28T14:41:15;15.80;94.30
44855;DHT22;30591;48.228;16.398;2023-04-28T14:43:42;15.90;92.90
44855;DHT22;30591;48.228;16.398;2023-04-28T14:46:10;15.90;94.40
44855;DHT22;30591;48.228;16.398;2023-04-28T14:48:39;15.80;94.80
44855;DHT22;30591;48.228;16.398;2023-04-28T14:51:06;15.80;94.20
44855;DHT22;30591;48.228;16.398;2023-04-28T14:53:33;15.80;94.40
44855;DHT22;30591;48.228;16.398;2023-04-28T14:56:02;15.70;94.50
44855;DHT22;30591;48.228;16.398;2023-04-28T14:58:45;15.70;94.60
44855;DHT22;30591;48.228;16.398;2023-04-28T15:01:13;15.70;94.70
44855;DHT22;30591;48.228;16.398;2023-04-28T15:03:41;15.60;95.00
44855;DHT22;30591;48.228;16.398;2023-04-28T15:06:10;15.30;94.40
44855;DHT22;30591;48.228;16.398;2023-04-28T15:08:38;15.70;94.20
44855;DHT22;30591;48.228;16.398;2023-04-28T15:11:06;15.90;95.10
44855;DHT22;30591;48.228;16.398;2023-04-28T15:13:33;15.90;95.40
44855;DHT22;30591;48.228;16.398;2023-04-28T15:16:01;15.80;95.40
44855;DHT22;30591;48.228;16.398;2023-04-28T15:18:29;15.70;95.10
44855;DHT22;30591;48.228;16.398;2023-04-28T15:20:58;15.70;95.80
44855;DHT22;30591;48.228;16.398;2023-04-28T15:23:26;15.60;96.10
44855;DHT22;30591;48.228;16.398;2023-04-28T15:25:53;15.70;95.30
44855;DHT22;30591;48.228;16.398;2023-04-28T15:28:20;15.80;96.30
44855;DHT22;30591;48.228;16.398;2023-04-28T15:30:48;15.90;96.30
44855;DHT22;30591;48.228;16.398;2023-04-28T15:33:15;16.20;96.10
44855;DHT22;30591;48.228;16.398;2023-04-28T15:35:43;16.40;95.60
44855;DHT22;30591;48.228;16.398;2023-04-28T15:38:11;16.40;96.40
44855;DHT22;30591;48.228;16.398;2023-04-28T15:40:39;16.30;95.40
44855;DHT22;30591;48.228;16.398;2023-04-28T15:43:08;16.20;96.10
44855;DHT22;30591;48.228;16.398;2023-04-28T15:45:35;16.20;96.60
44855;DHT22;30591;48.228;16.398;2023-04-28T15:48:05;16.20;95.60
44855;DHT22;30591;48.228;16.398;2023-04-28T15:50:32;16.20;95.10
44855;DHT22;30591;48.228;16.398;2023-04-28T15:53:00;16.00;96.80
44855;DHT22;30591;48.228;16.398;2023-04-28T15:55:28;15.90;96.70
44855;DHT22;30591;48.228;16.398;2023-04-28T15:57:56;15.80;97.30
44855;DHT22;30591;48.228;16.398;2023-04-28T16:00:23;15.70;96.70
44855;DHT22;30591;48.228;16.398;2023-04-28T16:02:51;15.70;96.90
44855;DHT22;30591;48.228;16.398;2023-04-28T16:05:18;15.60;97.40
44855;DHT22;30591;48.228;16.398;2023-04-28T16:07:46;15.50;97.30
44855;DHT22;30591;48.228;16.398;2023-04-28T16:10:15;15.40;97.70
44855;DHT22;30591;48.228;16.398;2023-04-28T16:12:43;15.30;98.00
44855;DHT22;30591;48.228;16.398;2023-04-28T16:15:11;15.20;98.50
44855;DHT22;30591;48.228;16.398;2023-04-28T16:17:40;15.10;99.50
44855;DHT22;30591;48.228;16.398;2023-04-28T16:20:09;14.80;99.90
44855;DHT22;30591;48.228;16.398;2023-04-28T16:22:39;14.80;99.90
44855;DHT22;30591;48.228;16.398;2023-04-28T16:25:07;14.60;99.90